sensor_id;sensor_type;location;lat;lon;timestamp;temperature;humidity
6841;DHT22;3458;53.678;14.080;2022-12-11T00:01:54;-1.10;99.90
6841;DHT22;3458;53.678;14.080;2022-12-11T00:04:20;-1.20;99.90
6841;DHT22;3458;53.678;14.080;2022-12-11T00:06:46;-1.20;99.90
6841;DHT22;3458;53.678;14.080;2022-12-11T00:09:18;-1.10;99.90
6841;DHT22;3458;53.678;14.080;2022-12-11T00:11:44;-1.20;99.90
6841;DHT22;3458;53.678;14.080;2022-12-11T00:14:10;-1.20;99.90
6841;DHT22;3458;53.678;14.080;2022-12-11T00:16:35;-1.10;99.90
6841;DHT22;3458;53.678;14.080;2022-12-11T00:19:01;-1.10;99.90
6841;DHT22;3458;53.678;14.080;2022-12-11T00:21:26;-1.00;99.90
6841;DHT22;3458;53.678;14.080;2022-12-11T00:23:52;-1.00;99.90
6841;DHT22;3458;53.678;14.080;2022-12-11T00:26:17;-1.10;99.90
6841;DHT22;3458;53.678;14.080;2022-12-11T00:28:44;-1.10;99.90
6841;DHT22;3458;53.678;14.080;2022-12-11T00:31:16;-1.20;99.90
6841;DHT22;3458;53.678;14.080;2022-12-11T00:33:43;-1.10;99.90
6841;DHT22;3458;53.678;14.080;2022-12-11T00:36:11;-1.10;99.90
6841;DHT22;3458;53.678;14.080;2022-12-11T00:38:37;-1.20;99.90
6841;DHT22;3458;53.678;14.080;2022-12-11T00:41:03;-1.10;99.90
6841;DHT22;3458;53.678;14.080;2022-12-11T00:43:28;-1.10;99.90
6841;DHT22;3458;53.678;14.080;2022-12-11T00:45:54;-1.00;99.90
6841;DHT22;3458;53.678;14.080;2022-12-11T00:48:19;-1.00;99.90
6841;DHT22;3458;53.678;14.080;2022-12-11T00:50:45;-1.00;99.90
6841;DHT22;3458;53.678;14.080;2022-12-11T00:53:11;-1.00;99.90
6841;DHT22;3458;53.678;14.080;2022-12-11T00:55:38;-1.00;99.90
6841;DHT22;3458;53.678;14.080;2022-12-11T00:58:04;-1.00;99.90
6841;DHT22;3458;53.678;14.080;2022-12-11T01:00:29;-1.00;99.90
6841;DHT22;3458;53.678;14.080;2022-12-11T01:02:55;-1.00;99.90
6841;DHT22;3458;53.678;14.080;2022-12-11T01:05:21;-1.00;99.90
6841;DHT22;3458;53.678;14.080;2022-12-11T01:07:46;-1.00;99.90
6841;DHT22;3458;53.678;14.080;2022-12-11T01:10:12;-1.00;99.90
6841;DHT22;3458;53.678;14.080;2022-12-11T01:15:26;-1.00;99.90
6841;DHT22;3458;53.678;14.080;2022-12-11T01:17:52;-1.00;99.90
6841;DHT22;3458;53.678;14.080;2022-12-11T01:20:19;-1.00;99.90
6841;DHT22;3458;53.678;14.080;2022-12-11T01:22:45;-1.00;99.90
6841;DHT22;3458;53.678;14.080;2022-12-11T01:25:10;-1.00;99.90
6841;DHT22;3458;53.678;14.080;2022-12-11T01:27:37;-1.00;99.90
6841;DHT22;3458;53.678;14.080;2022-12-11T01:30:05;-1.00;99.90
6841;DHT22;3458;53.678;14.080;2022-12-11T01:32:33;-1.00;99.90
6841;DHT22;3458;53.678;14.080;2022-12-11T01:34:59;-1.00;99.90
6841;DHT22;3458;53.678;14.080;2022-12-11T01:37:24;-1.00;99.90
6841;DHT22;3458;53.678;14.080;2022-12-11T01:39:50;-1.00;99.90
6841;DHT22;3458;53.678;14.080;2022-12-11T01:42:17;-1.00;99.90
6841;DHT22;3458;53.678;14.080;2022-12-11T01:47:09;-1.00;99.90
6841;DHT22;3458;53.678;14.080;2022-12-11T01:49:35;-1.00;99.90
6841;DHT22;3458;53.678;14.080;2022-12-11T01:52:05;-1.00;99.90
6841;DHT22;3458;53.678;14.080;2022-12-11T01:54:32;-1.00;99.90
6841;DHT22;3458;53.678;14.080;2022-12-11T01:57:01;-1.00;99.90
6841;DHT22;3458;53.678;14.080;2022-12-11T01:59:30;-1.00;99.90
6841;DHT22;3458;53.678;14.080;2022-12-11T02:02:02;-1.00;99.90
6841;DHT22;3458;53.678;14.080;2022-12-11T02:04:29;-1.10;99.90
6841;DHT22;3458;53.678;14.080;2022-12-11T02:06:55;-1.20;99.90
6841;DHT22;3458;53.678;14.080;2022-12-11T02:09:24;-1.20;99.90
6841;DHT22;3458;53.678;14.080;2022-12-11T02:14:56;-1.20;99.90
6841;DHT22;3458;53.678;14.080;2022-12-11T02:17:33;-1.10;99.90
6841;DHT22;3458;53.678;14.080;2022-12-11T02:20:05;-1.10;99.90
6841;DHT22;3458;53.678;14.080;2022-12-11T02:25:31;-1.10;99.90
6841;DHT22;3458;53.678;14.080;2022-12-11T02:28:19;-1.10;99.90
6841;DHT22;3458;53.678;14.080;2022-12-11T02:30:50;-1.10;99.90
6841;DHT22;3458;53.678;14.080;2022-12-11T02:33:22;-1.10;99.90
6841;DHT22;3458;53.678;14.080;2022-12-11T02:35:49;-1.10;99.90
6841;DHT22;3458;53.678;14.080;2022-12-11T02:38:28;-1.10;99.90
6841;DHT22;3458;53.678;14.080;2022-12-11T02:40:56;-1.10;99.90
6841;DHT22;3458;53.678;14.080;2022-12-11T02:43:24;-1.10;99.90
6841;DHT22;3458;53.678;14.080;2022-12-11T02:45:51;-1.10;99.90
6841;DHT22;3458;53.678;14.080;2022-12-11T02:48:18;-1.10;99.90
6841;DHT22;3458;53.678;14.080;2022-12-11T02:50:46;-1.10;99.90
6841;DHT22;3458;53.678;14.080;2022-12-11T02:53:18;-1.10;99.90
6841;DHT22;3458;53.678;14.080;2022-12-11T02:55:44;-1.10;99.90
6841;DHT22;3458;53.678;14.080;2022-12-11T02:58:23;-1.10;99.90
6841;DHT22;3458;53.678;14.080;2022-12-11T03:00:51;-1.20;99.90
6841;DHT22;3458;53.678;14.080;2022-12-11T03:03:16;-1.20;99.90
6841;DHT22;3458;53.678;14.080;2022-12-11T03:05:42;-1.20;99.90
6841;DHT22;3458;53.678;14.080;2022-12-11T03:08:10;-1.20;99.90
6841;DHT22;3458;53.678;14.080;2022-12-11T03:10:36;-1.20;99.90
6841;DHT22;3458;53.678;14.080;2022-12-11T03:13:01;-1.20;99.90
6841;DHT22;3458;53.678;14.080;2022-12-11T03:16:03;-1.30;99.90
6841;DHT22;3458;53.678;14.080;2022-12-11T03:18:38;-1.30;99.90
6841;DHT22;3458;53.678;14.080;2022-12-11T03:21:15;-1.30;99.90
6841;DHT22;3458;53.678;14.080;2022-12-11T03:24:02;-1.30;99.90
6841;DHT22;3458;53.678;14.080;2022-12-11T03:26:31;-1.30;99.90
6841;DHT22;3458;53.678;14.080;2022-12-11T03:29:02;-1.30;99.90
6841;DHT22;3458;53.678;14.080;2022-12-11T03:31:53;-1.30;99.90
6841;DHT22;3458;53.678;14.080;2022-12-11T03:34:29;-1.20;99.90
6841;DHT22;3458;53.678;14.080;2022-12-11T03:36:56;-1.20;99.90
6841;DHT22;3458;53.678;14.080;2022-12-11T03:39:45;-1.20;99.90
6841;DHT22;3458;53.678;14.080;2022-12-11T03:42:13;-1.20;99.90
6841;DHT22;3458;53.678;14.080;2022-12-11T03:44:41;-1.20;99.90
6841;DHT22;3458;53.678;14.080;2022-12-11T03:47:08;-1.20;99.90
6841;DHT22;3458;53.678;14.080;2022-12-11T03:49:38;-1.10;99.90
6841;DHT22;3458;53.678;14.080;2022-12-11T03:52:05;-1.10;99.90
6841;DHT22;3458;53.678;14.080;2022-12-11T03:54:32;-1.10;99.90
6841;DHT22;3458;53.678;14.080;2022-12-11T03:56:59;-1.20;99.90
6841;DHT22;3458;53.678;14.080;2022-12-11T03:59:26;-1.20;99.90
6841;DHT22;3458;53.678;14.080;2022-12-11T04:01:51;-1.20;99.90
6841;DHT22;3458;53.678;14.080;2022-12-11T04:04:17;-1.20;99.90
6841;DHT22;3458;53.678;14.080;2022-12-11T04:06:43;-1.20;99.90
6841;DHT22;3458;53.678;14.080;2022-12-11T04:09:09;-1.30;99.90
6841;DHT22;3458;53.678;14.080;2022-12-11T04:11:34;-1.40;99.90
6841;DHT22;3458;53.678;14.080;2022-12-11T04:14:08;-1.30;99.90
6841;DHT22;3458;53.678;14.080;2022-12-11T04:16:52;-1.40;99.90
6841;DHT22;3458;53.678;14.080;2022-12-11T04:19:18;-1.50;99.90
6841;DHT22;3458;53.678;14.080;2022-12-11T04:22:02;-1.40;99.90
6841;DHT22;3458;53.678;14.080;2022-12-11T04:24:48;-1.30;99.90
6841;DHT22;3458;53.678;14.080;2022-12-11T04:27:14;-1.30;99.90
6841;DHT22;3458;53.678;14.080;2022-12-11T04:30:00;-1.30;99.90
6841;DHT22;3458;53.678;14.080;2022-12-11T04:32:26;-1.30;99.90
6841;DHT22;3458;53.678;14.080;2022-12-11T04:34:52;-1.30;99.90
6841;DHT22;3458;53.678;14.080;2022-12-11T04:37:17;-1.30;99.90
6841;DHT22;3458;53.678;14.080;2022-12-11T04:39:43;-1.20;99.90
6841;DHT22;3458;53.678;14.080;2022-12-11T04:42:08;-1.20;99.90
6841;DHT22;3458;53.678;14.080;2022-12-11T04:44:34;-1.30;99.90
6841;DHT22;3458;53.678;14.080;2022-12-11T04:46:59;-1.40;99.90
6841;DHT22;3458;53.678;14.080;2022-12-11T04:49:25;-1.30;99.90
6841;DHT22;3458;53.678;14.080;2022-12-11T04:51:50;-1.30;99.90
6841;DHT22;3458;53.678;14.080;2022-12-11T04:54:16;-1.30;99.90
6841;DHT22;3458;53.678;14.080;2022-12-11T04:56:41;-1.40;99.90
6841;DHT22;3458;53.678;14.080;2022-12-11T04:59:07;-1.40;99.90
6841;DHT22;3458;53.678;14.080;2022-12-11T05:01:32;-1.40;99.90
6841;DHT22;3458;53.678;14.080;2022-12-11T05:03:58;-1.40;99.90
6841;DHT22;3458;53.678;14.080;2022-12-11T05:06:24;-1.30;99.90
6841;DHT22;3458;53.678;14.080;2022-12-11T05:08:50;-1.30;99.90
6841;DHT22;3458;53.678;14.080;2022-12-11T05:11:16;-1.30;99.90
6841;DHT22;3458;53.678;14.080;2022-12-11T05:13:42;-1.30;99.90
6841;DHT22;3458;53.678;14.080;2022-12-11T05:16:10;-1.40;99.90
6841;DHT22;3458;53.678;14.080;2022-12-11T05:18:36;-1.40;99.90
6841;DHT22;3458;53.678;14.080;2022-12-11T05:21:05;-1.40;99.90
6841;DHT22;3458;53.678;14.080;2022-12-11T05:23:31;-1.40;99.90
6841;DHT22;3458;53.678;14.080;2022-12-11T05:25:59;-1.40;99.90
6841;DHT22;3458;53.678;14.080;2022-12-11T05:28:27;-1.40;99.90
6841;DHT22;3458;53.678;14.080;2022-12-11T05:31:02;-1.50;99.90
6841;DHT22;3458;53.678;14.080;2022-12-11T05:33:29;-1.50;99.90
6841;DHT22;3458;53.678;14.080;2022-12-11T05:35:54;-1.50;99.90
6841;DHT22;3458;53.678;14.080;2022-12-11T05:38:20;-1.50;99.90
6841;DHT22;3458;53.678;14.080;2022-12-11T05:41:00;-1.50;99.90
6841;DHT22;3458;53.678;14.080;2022-12-11T05:43:28;-1.50;99.90
6841;DHT22;3458;53.678;14.080;2022-12-11T05:45:54;-1.50;99.90
6841;DHT22;3458;53.678;14.080;2022-12-11T05:48:20;-1.50;99.90
6841;DHT22;3458;53.678;14.080;2022-12-11T05:50:56;-1.60;99.90
6841;DHT22;3458;53.678;14.080;2022-12-11T05:53:22;-1.70;99.90
6841;DHT22;3458;53.678;14.080;2022-12-11T05:55:47;-1.80;99.90
6841;DHT22;3458;53.678;14.080;2022-12-11T05:58:13;-1.80;99.90
6841;DHT22;3458;53.678;14.080;2022-12-11T06:00:41;-1.80;99.90
6841;DHT22;3458;53.678;14.080;2022-12-11T06:03:06;-1.80;99.90
6841;DHT22;3458;53.678;14.080;2022-12-11T06:05:37;-1.90;99.90
6841;DHT22;3458;53.678;14.080;2022-12-11T06:08:02;-2.00;99.90
6841;DHT22;3458;53.678;14.080;2022-12-11T06:10:28;-2.00;99.90
6841;DHT22;3458;53.678;14.080;2022-12-11T06:12:53;-1.90;99.90
6841;DHT22;3458;53.678;14.080;2022-12-11T06:15:19;-1.90;99.90
6841;DHT22;3458;53.678;14.080;2022-12-11T06:17:44;-1.90;99.90
6841;DHT22;3458;53.678;14.080;2022-12-11T06:20:10;-1.80;99.90
6841;DHT22;3458;53.678;14.080;2022-12-11T06:22:36;-1.80;99.90
6841;DHT22;3458;53.678;14.080;2022-12-11T06:25:01;-1.80;99.90
6841;DHT22;3458;53.678;14.080;2022-12-11T06:27:26;-1.80;99.90
6841;DHT22;3458;53.678;14.080;2022-12-11T06:29:52;-1.80;99.90
6841;DHT22;3458;53.678;14.080;2022-12-11T06:32:17;-1.80;99.90
6841;DHT22;3458;53.678;14.080;2022-12-11T06:34:43;-1.80;99.90
6841;DHT22;3458;53.678;14.080;2022-12-11T06:37:09;-1.70;99.90
6841;DHT22;3458;53.678;14.080;2022-12-11T06:39:34;-1.80;99.90
6841;DHT22;3458;53.678;14.080;2022-12-11T06:42:00;-1.70;99.90
6841;DHT22;3458;53.678;14.080;2022-12-11T06:44:25;-1.70;99.90
6841;DHT22;3458;53.678;14.080;2022-12-11T06:46:51;-1.80;99.90
6841;DHT22;3458;53.678;14.080;2022-12-11T06:49:16;-1.80;99.90
6841;DHT22;3458;53.678;14.080;2022-12-11T06:51:42;-1.80;99.90
6841;DHT22;3458;53.678;14.080;2022-12-11T06:54:07;-1.70;99.90
6841;DHT22;3458;53.678;14.080;2022-12-11T06:56:33;-1.70;99.90
6841;DHT22;3458;53.678;14.080;2022-12-11T06:58:59;-1.70;99.90
6841;DHT22;3458;53.678;14.080;2022-12-11T07:01:26;-1.70;99.90
6841;DHT22;3458;53.678;14.080;2022-12-11T07:03:53;-1.60;99.90
6841;DHT22;3458;53.678;14.080;2022-12-11T07:06:20;-1.60;99.90
6841;DHT22;3458;53.678;14.080;2022-12-11T07:08:45;-1.50;99.90
6841;DHT22;3458;53.678;14.080;2022-12-11T07:11:13;-1.60;99.90
6841;DHT22;3458;53.678;14.080;2022-12-11T07:13:39;-1.50;99.90
6841;DHT22;3458;53.678;14.080;2022-12-11T07:16:06;-1.60;99.90
6841;DHT22;3458;53.678;14.080;2022-12-11T07:18:36;-1.60;99.90
6841;DHT22;3458;53.678;14.080;2022-12-11T07:21:03;-1.70;99.90
6841;DHT22;3458;53.678;14.080;2022-12-11T07:23:28;-1.70;99.90
6841;DHT22;3458;53.678;14.080;2022-12-11T07:25:55;-1.70;99.90
6841;DHT22;3458;53.678;14.080;2022-12-11T07:28:21;-1.70;99.90
6841;DHT22;3458;53.678;14.080;2022-12-11T07:30:46;-1.70;99.90
6841;DHT22;3458;53.678;14.080;2022-12-11T07:33:12;-1.70;99.90
6841;DHT22;3458;53.678;14.080;2022-12-11T07:35:37;-1.70;99.90
6841;DHT22;3458;53.678;14.080;2022-12-11T07:38:03;-1.70;99.90
6841;DHT22;3458;53.678;14.080;2022-12-11T07:40:28;-1.70;99.90
6841;DHT22;3458;53.678;14.080;2022-12-11T07:42:54;-1.60;99.90
6841;DHT22;3458;53.678;14.080;2022-12-11T07:45:19;-1.60;99.90
6841;DHT22;3458;53.678;14.080;2022-12-11T07:47:45;-1.60;99.90
6841;DHT22;3458;53.678;14.080;2022-12-11T07:50:11;-1.60;99.90
6841;DHT22;3458;53.678;14.080;2022-12-11T07:52:36;-1.60;99.90
6841;DHT22;3458;53.678;14.080;2022-12-11T07:55:02;-1.60;99.90
6841;DHT22;3458;53.678;14.080;2022-12-11T07:57:28;-1.60;99.90
6841;DHT22;3458;53.678;14.080;2022-12-11T07:59:53;-1.50;99.90
6841;DHT22;3458;53.678;14.080;2022-12-11T08:02:20;-1.50;99.90
6841;DHT22;3458;53.678;14.080;2022-12-11T08:04:46;-1.40;99.90
6841;DHT22;3458;53.678;14.080;2022-12-11T08:07:12;-1.30;99.90
6841;DHT22;3458;53.678;14.080;2022-12-11T08:09:37;-1.30;99.90
6841;DHT22;3458;53.678;14.080;2022-12-11T08:12:03;-1.30;99.90
6841;DHT22;3458;53.678;14.080;2022-12-11T08:14:28;-1.30;99.90
6841;DHT22;3458;53.678;14.080;2022-12-11T08:16:54;-1.30;99.90
6841;DHT22;3458;53.678;14.080;2022-12-11T08:19:21;-1.30;99.90
6841;DHT22;3458;53.678;14.080;2022-12-11T08:21:47;-1.20;99.90
6841;DHT22;3458;53.678;14.080;2022-12-11T08:24:12;-1.10;99.90
6841;DHT22;3458;53.678;14.080;2022-12-11T08:26:40;-1.20;99.90
6841;DHT22;3458;53.678;14.080;2022-12-11T08:29:06;-1.20;99.90
6841;DHT22;3458;53.678;14.080;2022-12-11T08:31:31;-1.30;99.90
6841;DHT22;3458;53.678;14.080;2022-12-11T08:33:57;-1.30;99.90
6841;DHT22;3458;53.678;14.080;2022-12-11T08:36:24;-1.30;99.90
6841;DHT22;3458;53.678;14.080;2022-12-11T08:38:50;-1.20;99.90
6841;DHT22;3458;53.678;14.080;2022-12-11T08:41:22;-1.10;99.90
6841;DHT22;3458;53.678;14.080;2022-12-11T08:43:48;-1.10;99.90
6841;DHT22;3458;53.678;14.080;2022-12-11T08:46:17;-1.10;99.90
6841;DHT22;3458;53.678;14.080;2022-12-11T08:48:42;-1.00;99.90
6841;DHT22;3458;53.678;14.080;2022-12-11T08:51:11;-1.00;99.90
6841;DHT22;3458;53.678;14.080;2022-12-11T08:53:37;-1.00;99.90
6841;DHT22;3458;53.678;14.080;2022-12-11T08:56:09;-0.90;99.90
6841;DHT22;3458;53.678;14.080;2022-12-11T08:58:35;-0.90;99.90
6841;DHT22;3458;53.678;14.080;2022-12-11T09:01:08;-0.80;99.90
6841;DHT22;3458;53.678;14.080;2022-12-11T09:03:35;-0.80;99.90
6841;DHT22;3458;53.678;14.080;2022-12-11T09:06:06;-0.70;99.90
6841;DHT22;3458;53.678;14.080;2022-12-11T09:08:32;-0.60;99.90
6841;DHT22;3458;53.678;14.080;2022-12-11T09:11:04;-0.60;99.90
6841;DHT22;3458;53.678;14.080;2022-12-11T09:13:30;-0.60;99.90
6841;DHT22;3458;53.678;14.080;2022-12-11T09:15:56;-0.60;99.90
6841;DHT22;3458;53.678;14.080;2022-12-11T09:18:21;-0.70;99.90
6841;DHT22;3458;53.678;14.080;2022-12-11T09:20:47;-0.70;99.90
6841;DHT22;3458;53.678;14.080;2022-12-11T09:23:12;-0.70;99.90
6841;DHT22;3458;53.678;14.080;2022-12-11T09:25:40;-0.70;99.90
6841;DHT22;3458;53.678;14.080;2022-12-11T09:28:06;-0.70;99.90
6841;DHT22;3458;53.678;14.080;2022-12-11T09:30:32;-0.70;99.90
6841;DHT22;3458;53.678;14.080;2022-12-11T09:32:57;-0.70;99.90
6841;DHT22;3458;53.678;14.080;2022-12-11T09:35:23;-0.60;99.90
6841;DHT22;3458;53.678;14.080;2022-12-11T09:37:48;-0.50;99.90
6841;DHT22;3458;53.678;14.080;2022-12-11T09:40:14;-0.50;99.90
6841;DHT22;3458;53.678;14.080;2022-12-11T09:42:52;-0.40;99.90
6841;DHT22;3458;53.678;14.080;2022-12-11T09:45:19;-0.40;99.90
6841;DHT22;3458;53.678;14.080;2022-12-11T09:47:48;-0.40;99.90
6841;DHT22;3458;53.678;14.080;2022-12-11T09:50:25;-0.30;99.90
6841;DHT22;3458;53.678;14.080;2022-12-11T09:53:18;-0.40;99.90
6841;DHT22;3458;53.678;14.080;2022-12-11T09:56:15;-0.40;99.90
6841;DHT22;3458;53.678;14.080;2022-12-11T09:59:20;-0.40;99.90
6841;DHT22;3458;53.678;14.080;2022-12-11T10:07:11;-0.40;99.90
6841;DHT22;3458;53.678;14.080;2022-12-11T10:09:50;-0.40;99.90
6841;DHT22;3458;53.678;14.080;2022-12-11T10:12:35;-0.40;99.90
6841;DHT22;3458;53.678;14.080;2022-12-11T10:17:56;-0.40;99.90
6841;DHT22;3458;53.678;14.080;2022-12-11T10:20:27;-0.50;99.90
6841;DHT22;3458;53.678;14.080;2022-12-11T10:22:56;-0.40;99.90
6841;DHT22;3458;53.678;14.080;2022-12-11T10:25:35;-0.40;99.90
6841;DHT22;3458;53.678;14.080;2022-12-11T10:28:16;-0.30;99.90
6841;DHT22;3458;53.678;14.080;2022-12-11T10:31:11;-0.30;99.90
6841;DHT22;3458;53.678;14.080;2022-12-11T10:33:58;-0.40;99.90
6841;DHT22;3458;53.678;14.080;2022-12-11T10:36:30;-0.40;99.90
6841;DHT22;3458;53.678;14.080;2022-12-11T10:38:57;-0.40;99.90
6841;DHT22;3458;53.678;14.080;2022-12-11T10:41:43;-0.30;99.90
6841;DHT22;3458;53.678;14.080;2022-12-11T10:44:25;-0.40;99.90
6841;DHT22;3458;53.678;14.080;2022-12-11T10:49:32;-0.40;99.90
6841;DHT22;3458;53.678;14.080;2022-12-11T10:51:58;-0.40;99.90
6841;DHT22;3458;53.678;14.080;2022-12-11T10:54:32;-0.40;99.90
6841;DHT22;3458;53.678;14.080;2022-12-11T10:57:00;-0.40;99.90
6841;DHT22;3458;53.678;14.080;2022-12-11T11:02:20;-0.50;99.90
6841;DHT22;3458;53.678;14.080;2022-12-11T11:04:47;-0.40;99.90
6841;DHT22;3458;53.678;14.080;2022-12-11T11:07:24;-0.30;99.90
6841;DHT22;3458;53.678;14.080;2022-12-11T11:10:03;-0.20;99.90
6841;DHT22;3458;53.678;14.080;2022-12-11T11:12:29;-0.30;99.90
6841;DHT22;3458;53.678;14.080;2022-12-11T11:15:04;-0.30;99.90
6841;DHT22;3458;53.678;14.080;2022-12-11T11:17:31;-0.20;99.90
6841;DHT22;3458;53.678;14.080;2022-12-11T11:20:03;-0.20;99.90
6841;DHT22;3458;53.678;14.080;2022-12-11T11:22:31;-0.20;99.90
6841;DHT22;3458;53.678;14.080;2022-12-11T11:24:58;-0.20;99.90
6841;DHT22;3458;53.678;14.080;2022-12-11T11:27:29;-0.20;99.90
6841;DHT22;3458;53.678;14.080;2022-12-11T11:30:02;-0.20;99.90
6841;DHT22;3458;53.678;14.080;2022-12-11T11:32:33;-0.20;99.90
6841;DHT22;3458;53.678;14.080;2022-12-11T11:37:40;-0.30;99.90
6841;DHT22;3458;53.678;14.080;2022-12-11T11:40:20;-0.20;99.90
6841;DHT22;3458;53.678;14.080;2022-12-11T11:42:56;-0.10;99.90
6841;DHT22;3458;53.678;14.080;2022-12-11T11:45:33;-0.10;99.90
6841;DHT22;3458;53.678;14.080;2022-12-11T11:48:12;-0.10;99.90
6841;DHT22;3458;53.678;14.080;2022-12-11T11:50:44;-0.10;99.90
6841;DHT22;3458;53.678;14.080;2022-12-11T11:53:23;-0.20;99.90
6841;DHT22;3458;53.678;14.080;2022-12-11T11:56:05;-0.20;99.90
6841;DHT22;3458;53.678;14.080;2022-12-11T11:58:40;-0.30;99.90
6841;DHT22;3458;53.678;14.080;2022-12-11T12:01:14;-0.30;99.90
6841;DHT22;3458;53.678;14.080;2022-12-11T12:03:40;-0.30;99.90
6841;DHT22;3458;53.678;14.080;2022-12-11T12:08:58;-0.20;99.90
6841;DHT22;3458;53.678;14.080;2022-12-11T12:11:29;-0.30;99.90
6841;DHT22;3458;53.678;14.080;2022-12-11T12:14:19;-0.20;99.90
6841;DHT22;3458;53.678;14.080;2022-12-11T12:17:25;-0.20;99.90
6841;DHT22;3458;53.678;14.080;2022-12-11T12:20:08;-0.10;99.90
6841;DHT22;3458;53.678;14.080;2022-12-11T12:25:41;0.10;99.90
6841;DHT22;3458;53.678;14.080;2022-12-11T12:28:40;0.10;99.90
6841;DHT22;3458;53.678;14.080;2022-12-11T12:34:13;0.20;99.90
6841;DHT22;3458;53.678;14.080;2022-12-11T12:39:30;0.10;99.90
6841;DHT22;3458;53.678;14.080;2022-12-11T12:47:41;0.00;99.90
6841;DHT22;3458;53.678;14.080;2022-12-11T12:50:17;-0.10;99.90
6841;DHT22;3458;53.678;14.080;2022-12-11T12:52:43;0.00;99.90
6841;DHT22;3458;53.678;14.080;2022-12-11T12:55:23;0.00;99.90
6841;DHT22;3458;53.678;14.080;2022-12-11T12:57:58;0.00;99.90
6841;DHT22;3458;53.678;14.080;2022-12-11T13:00:31;-0.10;99.90
6841;DHT22;3458;53.678;14.080;2022-12-11T13:02:58;0.00;99.90
6841;DHT22;3458;53.678;14.080;2022-12-11T13:05:27;-0.10;99.90
6841;DHT22;3458;53.678;14.080;2022-12-11T13:07:56;-0.10;99.90
6841;DHT22;3458;53.678;14.080;2022-12-11T13:10:39;-0.10;99.90
6841;DHT22;3458;53.678;14.080;2022-12-11T13:13:24;-0.10;99.90
6841;DHT22;3458;53.678;14.080;2022-12-11T13:15:50;-0.10;99.90
6841;DHT22;3458;53.678;14.080;2022-12-11T13:18:34;-0.10;99.90
6841;DHT22;3458;53.678;14.080;2022-12-11T13:21:02;-0.20;99.90
6841;DHT22;3458;53.678;14.080;2022-12-11T13:23:33;-0.20;99.90
6841;DHT22;3458;53.678;14.080;2022-12-11T13:26:01;-0.20;99.90
6841;DHT22;3458;53.678;14.080;2022-12-11T13:28:45;-0.30;99.90
6841;DHT22;3458;53.678;14.080;2022-12-11T13:34:17;-0.30;99.90
6841;DHT22;3458;53.678;14.080;2022-12-11T13:36:47;-0.30;99.90
6841;DHT22;3458;53.678;14.080;2022-12-11T13:39:28;-0.30;99.90
6841;DHT22;3458;53.678;14.080;2022-12-11T13:41:58;-0.40;99.90
6841;DHT22;3458;53.678;14.080;2022-12-11T13:44:40;-0.40;99.90
6841;DHT22;3458;53.678;14.080;2022-12-11T13:47:12;-0.40;99.90
6841;DHT22;3458;53.678;14.080;2022-12-11T13:49:41;-0.40;99.90
6841;DHT22;3458;53.678;14.080;2022-12-11T13:52:17;-0.40;99.90
6841;DHT22;3458;53.678;14.080;2022-12-11T13:54:48;-0.30;99.90
6841;DHT22;3458;53.678;14.080;2022-12-11T13:57:18;-0.40;99.90
6841;DHT22;3458;53.678;14.080;2022-12-11T13:59:50;-0.30;99.90
6841;DHT22;3458;53.678;14.080;2022-12-11T14:02:27;-0.40;99.90
6841;DHT22;3458;53.678;14.080;2022-12-11T14:04:57;-0.40;99.90
6841;DHT22;3458;53.678;14.080;2022-12-11T14:07:37;-0.30;99.90
6841;DHT22;3458;53.678;14.080;2022-12-11T14:10:28;-0.30;99.90
6841;DHT22;3458;53.678;14.080;2022-12-11T14:12:58;-0.30;99.90
6841;DHT22;3458;53.678;14.080;2022-12-11T14:15:26;-0.30;99.90
6841;DHT22;3458;53.678;14.080;2022-12-11T14:17:53;-0.30;99.90
6841;DHT22;3458;53.678;14.080;2022-12-11T14:20:21;-0.30;99.90
6841;DHT22;3458;53.678;14.080;2022-12-11T14:22:48;-0.30;99.90
6841;DHT22;3458;53.678;14.080;2022-12-11T14:25:31;-0.40;99.90
6841;DHT22;3458;53.678;14.080;2022-12-11T14:27:57;-0.40;99.90
6841;DHT22;3458;53.678;14.080;2022-12-11T14:30:31;-0.40;99.90
6841;DHT22;3458;53.678;14.080;2022-12-11T14:32:59;-0.40;99.90
6841;DHT22;3458;53.678;14.080;2022-12-11T14:35:30;-0.30;99.90
6841;DHT22;3458;53.678;14.080;2022-12-11T14:38:01;-0.30;99.90
6841;DHT22;3458;53.678;14.080;2022-12-11T14:40:32;-0.30;99.90
6841;DHT22;3458;53.678;14.080;2022-12-11T14:43:01;-0.30;99.90
6841;DHT22;3458;53.678;14.080;2022-12-11T14:45:33;-0.30;99.90
6841;DHT22;3458;53.678;14.080;2022-12-11T14:48:03;-0.30;99.90
6841;DHT22;3458;53.678;14.080;2022-12-11T14:50:37;-0.30;99.90
6841;DHT22;3458;53.678;14.080;2022-12-11T14:53:08;-0.30;99.90
6841;DHT22;3458;53.678;14.080;2022-12-11T14:55:37;-0.30;99.90
6841;DHT22;3458;53.678;14.080;2022-12-11T14:58:23;-0.30;99.90
6841;DHT22;3458;53.678;14.080;2022-12-11T15:01:00;-0.30;99.90
6841;DHT22;3458;53.678;14.080;2022-12-11T15:03:32;-0.30;99.90
6841;DHT22;3458;53.678;14.080;2022-12-11T15:05:58;-0.30;99.90
6841;DHT22;3458;53.678;14.080;2022-12-11T15:08:27;-0.30;99.90
6841;DHT22;3458;53.678;14.080;2022-12-11T15:11:14;-0.30;99.90
6841;DHT22;3458;53.678;14.080;2022-12-11T15:16:15;-0.30;99.90
6841;DHT22;3458;53.678;14.080;2022-12-11T15:18:41;-0.40;99.90
6841;DHT22;3458;53.678;14.080;2022-12-11T15:21:09;-0.30;99.90
6841;DHT22;3458;53.678;14.080;2022-12-11T15:23:55;-0.30;99.90
6841;DHT22;3458;53.678;14.080;2022-12-11T15:26:38;-0.40;99.90
6841;DHT22;3458;53.678;14.080;2022-12-11T15:29:21;-0.30;99.90
6841;DHT22;3458;53.678;14.080;2022-12-11T15:32:14;-0.30;99.90
6841;DHT22;3458;53.678;14.080;2022-12-11T15:34:47;-0.40;99.90
6841;DHT22;3458;53.678;14.080;2022-12-11T15:37:22;-0.40;99.90
6841;DHT22;3458;53.678;14.080;2022-12-11T15:39:49;-0.40;99.90
6841;DHT22;3458;53.678;14.080;2022-12-11T15:42:19;-0.40;99.90
6841;DHT22;3458;53.678;14.080;2022-12-11T15:44:46;-0.40;99.90
6841;DHT22;3458;53.678;14.080;2022-12-11T15:47:23;-0.40;99.90
6841;DHT22;3458;53.678;14.080;2022-12-11T15:49:49;-0.40;99.90
6841;DHT22;3458;53.678;14.080;2022-12-11T15:52:14;-0.40;99.90
6841;DHT22;3458;53.678;14.080;2022-12-11T15:54:40;-0.40;99.90
6841;DHT22;3458;53.678;14.080;2022-12-11T15:57:13;-0.40;99.90
6841;DHT22;3458;53.678;14.080;2022-12-11T15:59:39;-0.40;99.90
6841;DHT22;3458;53.678;14.080;2022-12-11T16:02:10;-0.40;99.90
6841;DHT22;3458;53.678;14.080;2022-12-11T16:04:36;-0.40;99.90
6841;DHT22;3458;53.678;14.080;2022-12-11T16:07:01;-0.50;99.90
6841;DHT22;3458;53.678;14.080;2022-12-11T16:09:27;-0.40;99.90
6841;DHT22;3458;53.678;14.080;2022-12-11T16:11:52;-0.40;99.90
6841;DHT22;3458;53.678;14.080;2022-12-11T16:14:18;-0.40;99.90
6841;DHT22;3458;53.678;14.080;2022-12-11T16:16:43;-0.40;99.90
6841;DHT22;3458;53.678;14.080;2022-12-11T16:19:09;-0.40;99.90
6841;DHT22;3458;53.678;14.080;2022-12-11T16:21:34;-0.40;99.90
6841;DHT22;3458;53.678;14.080;2022-12-11T16:24:00;-0.40;99.90
6841;DHT22;3458;53.678;14.080;2022-12-11T16:26:25;-0.40;99.90
6841;DHT22;3458;53.678;14.080;2022-12-11T16:28:51;-0.40;99.90
6841;DHT22;3458;53.678;14.080;2022-12-11T16:31:17;-0.40;99.90
6841;DHT22;3458;53.678;14.080;2022-12-11T16:33:42;-0.40;99.90
6841;DHT22;3458;53.678;14.080;2022-12-11T16:36:15;-0.50;99.90
6841;DHT22;3458;53.678;14.080;2022-12-11T16:38:47;-0.40;99.90
6841;DHT22;3458;53.678;14.080;2022-12-11T16:41:13;-0.50;99.90
6841;DHT22;3458;53.678;14.080;2022-12-11T16:43:38;-0.50;99.90
6841;DHT22;3458;53.678;14.080;2022-12-11T16:46:04;-0.50;99.90
6841;DHT22;3458;53.678;14.080;2022-12-11T16:48:30;-0.50;99.90
6841;DHT22;3458;53.678;14.080;2022-12-11T16:50:55;-0.50;99.90
6841;DHT22;3458;53.678;14.080;2022-12-11T16:53:21;-0.50;99.90
6841;DHT22;3458;53.678;14.080;2022-12-11T16:55:47;-0.40;99.90